Terminal Aerodrome Forecast
Issued by NWS San Angelo, TX

Home | Current Version | Previous Version | Text Only | Print | Product List | Glossary On
Versions: 1 2 3 4 5 6 7 8 9 10 11 12 13 14 15 16 17 18 19 20 21 22 23 24 25 26 27
539
FTUS44 KSJT 221900 AAA
TAFSJT
TAF AMD
KSJT 221920Z 2219/2318 16011KT P6SM OVC025
     FM230200 16010KT P6SM OVC014
     FM230600 17012KT P6SM OVC007
     FM231500 16014G21KT P6SM -SHRA OVC012=

USA.gov is the U.S. government's official web portal to all federal, state and local government web resources and services.